createdAt,value
2019-03-22T00:01:57.000Z,1024.623
2019-03-22T00:11:56.000Z,1024.544
2019-03-22T00:21:57.000Z,1024.538
2019-03-22T00:31:57.000Z,1024.473
2019-03-22T00:41:57.000Z,1024.488
2019-03-22T00:51:57.000Z,1024.475
2019-03-22T01:01:57.000Z,1024.466
2019-03-22T01:11:57.000Z,1024.375
2019-03-22T01:21:57.000Z,1024.274
2019-03-22T01:31:57.000Z,1024.307
2019-03-22T01:41:57.000Z,1024.324
2019-03-22T01:51:57.000Z,1024.323
2019-03-22T02:01:57.000Z,1024.248
2019-03-22T02:11:57.000Z,1024.097
2019-03-22T02:21:57.000Z,1024.083
2019-03-22T02:31:57.000Z,1024.121
2019-03-22T02:41:57.000Z,1024.01
2019-03-22T02:51:57.000Z,1023.954
2019-03-22T03:01:57.000Z,1023.959
2019-03-22T03:11:57.000Z,1023.949
2019-03-22T03:21:57.000Z,1023.829
2019-03-22T03:31:57.000Z,1023.792
2019-03-22T03:41:57.000Z,1023.599
2019-03-22T03:51:57.000Z,1023.627
2019-03-22T04:01:57.000Z,1023.591
2019-03-22T04:11:57.000Z,1023.464
2019-03-22T04:21:57.000Z,1023.529
2019-03-22T04:31:57.000Z,1023.466
2019-03-22T04:41:57.000Z,1023.413
2019-03-22T04:51:57.000Z,1023.408
2019-03-22T05:01:57.000Z,1023.341
2019-03-22T05:11:57.000Z,1023.426
2019-03-22T05:21:57.000Z,1023.489
2019-03-22T05:31:57.000Z,1023.704
2019-03-22T05:41:57.000Z,1023.737
2019-03-22T05:51:57.000Z,1023.752
2019-03-22T06:01:57.000Z,1023.819
2019-03-22T06:11:57.000Z,1024.018
2019-03-22T06:21:57.000Z,1024.095
2019-03-22T06:31:57.000Z,1024.161
2019-03-22T06:41:57.000Z,1024.376
2019-03-22T06:51:57.000Z,1024.442
2019-03-22T07:01:57.000Z,1024.481
2019-03-22T07:11:57.000Z,1024.463
2019-03-22T07:21:57.000Z,1024.406
2019-03-22T07:31:57.000Z,1024.206
2019-03-22T07:41:57.000Z,1024.139
2019-03-22T07:51:58.000Z,1023.988
2019-03-22T08:01:57.000Z,1024.024
2019-03-22T08:11:57.000Z,1023.965
2019-03-22T08:21:57.000Z,1023.834
2019-03-22T08:31:58.000Z,1023.676
2019-03-22T08:41:58.000Z,1023.532
2019-03-22T08:51:58.000Z,1023.396
2019-03-22T09:01:58.000Z,1023.462
2019-03-22T09:11:58.000Z,1023.39
2019-03-22T09:21:58.000Z,1023.379
2019-03-22T09:31:58.000Z,1023.314
2019-03-22T09:41:58.000Z,1023.267
2019-03-22T09:51:58.000Z,1023.24
2019-03-22T10:01:58.000Z,1023.212
2019-03-22T10:11:58.000Z,1023.132
2019-03-22T10:21:58.000Z,1022.98
2019-03-22T10:31:58.000Z,1022.904
2019-03-22T10:41:58.000Z,1022.907
2019-03-22T10:51:58.000Z,1022.779
2019-03-22T11:01:58.000Z,1022.507
2019-03-22T11:11:58.000Z,1022.455
2019-03-22T11:21:58.000Z,1022.371
2019-03-22T11:31:58.000Z,1022.184
2019-03-22T11:41:58.000Z,1021.852
2019-03-22T11:51:58.000Z,1021.729
2019-03-22T12:01:58.000Z,1021.587
2019-03-22T12:11:58.000Z,1021.522
2019-03-22T12:21:58.000Z,1021.273
2019-03-22T12:31:58.000Z,1021.174
2019-03-22T12:41:58.000Z,1021.066
2019-03-22T12:51:58.000Z,1020.811
2019-03-22T13:01:58.000Z,1020.796
2019-03-22T13:11:58.000Z,1020.631
2019-03-22T13:31:59.000Z,1020.379
2019-03-22T13:41:58.000Z,1020.265
2019-03-22T13:51:58.000Z,1020.155
2019-03-22T14:01:58.000Z,1020.04
2019-03-22T14:11:58.000Z,1019.911
2019-03-22T14:21:58.000Z,1019.859
2019-03-22T14:31:58.000Z,1019.758
2019-03-22T14:41:58.000Z,1019.625
2019-03-22T14:51:58.000Z,1019.459
2019-03-22T15:01:58.000Z,1019.311
2019-03-22T15:11:58.000Z,1019.205
2019-03-22T15:21:58.000Z,1019.086
2019-03-22T15:31:58.000Z,1018.945
2019-03-22T15:41:58.000Z,1018.866
2019-03-22T16:01:58.000Z,1018.754
2019-03-22T16:11:58.000Z,1018.651
2019-03-22T16:22:00.000Z,1018.57
2019-03-22T16:31:59.000Z,1018.51
2019-03-22T16:41:59.000Z,1018.457
2019-03-22T16:51:59.000Z,1018.38
2019-03-22T17:01:59.000Z,1018.339
2019-03-22T17:11:59.000Z,1018.309
2019-03-22T17:21:59.000Z,1018.321
2019-03-22T17:31:59.000Z,1018.236
2019-03-22T17:41:59.000Z,1018.236
2019-03-22T17:51:59.000Z,1018.251
2019-03-22T18:01:59.000Z,1018.279
2019-03-22T18:11:59.000Z,1018.32
2019-03-22T18:21:59.000Z,1018.32
2019-03-22T18:31:59.000Z,1018.4
2019-03-22T18:41:59.000Z,1018.468
2019-03-22T18:51:59.000Z,1018.419
2019-03-22T19:01:59.000Z,1018.421
2019-03-22T19:11:59.000Z,1018.372
2019-03-22T19:21:59.000Z,1018.365
2019-03-22T19:31:59.000Z,1018.365
2019-03-22T19:41:59.000Z,1018.301
2019-03-22T20:01:59.000Z,1018.414
2019-03-22T20:11:59.000Z,1018.462
2019-03-22T20:21:59.000Z,1018.461
2019-03-22T20:31:59.000Z,1018.397
2019-03-22T20:41:59.000Z,1018.32
2019-03-22T20:52:01.000Z,1018.326
2019-03-22T21:01:59.000Z,1018.291
2019-03-22T21:11:59.000Z,1018.326
2019-03-22T21:21:59.000Z,1018.331
2019-03-22T21:41:59.000Z,1018.351
2019-03-22T21:51:59.000Z,1018.285
2019-03-22T22:02:00.000Z,1018.323
2019-03-22T22:12:00.000Z,1018.307
2019-03-22T22:21:59.000Z,1018.178
2019-03-22T22:31:59.000Z,1018.143
2019-03-22T22:41:59.000Z,1018.175
2019-03-22T22:51:59.000Z,1018.143
2019-03-22T23:01:59.000Z,1018.102
2019-03-22T23:11:59.000Z,1018.042
2019-03-22T23:21:59.000Z,1018.028
2019-03-22T23:31:59.000Z,1018.034
2019-03-22T23:41:59.000Z,1018.067
2019-03-22T23:51:59.000Z,1018.211
